Ailine Elizabeth — WCX4766 — position and weather

sailwx.info

Track history (hours):
 
Tides and Currents Weather Stations Pressure Air Temp Water Temp Dewpoint Dewpoint Depression Visibility Wind Speed Wind Dir Waves Ship Positions

Ailine Elizabeth

Owner: MARINE EXPRESS INC, Pittsburg, CA. More information available from US FCC via Universal Licensing System and Coast Guard Vessel Documentation Center.

Last reported at 2018-Jun-25 01:54 UTC. Time now 2018-Jun-25 05:48 UTC.
Position N 37°47' W 122°17'.

Length 25 m; draft 2 m.

MMSI: 367179250.

Date/timePositionNaut miles runAvg speedWind from/ knotsBaromVisibWave heightAir tempDewpointWater temp
2018-Jun-25 01:54N 37°47' W 122°17'3 7.0
2018-Jun-25 01:30N 37°46' W 122°20'2 4.3
2018-Jun-25 00:59N 37°47' W 122°23'0 0.1
2018-Jun-25 00:30N 37°47' W 122°23'0 0.0
2018-Jun-24 23:59N 37°47' W 122°23'3 6.6
2018-Jun-24 23:30N 37°44' W 122°21'0 0.1
2018-Jun-24 23:00N 37°44' W 122°21'3 6.4
2018-Jun-24 22:30N 37°47' W 122°23'4 7.4
2018-Jun-24 22:00N 37°48' W 122°18'1 0.6
2018-Jun-24 20:30N 37°47' W 122°17'3 6.0
2018-Jun-24 20:00N 37°48' W 122°21'3 6.4
2018-Jun-24 19:30N 37°44' W 122°21'0 0.4
2018-Jun-24 19:00N 37°44' W 122°21'3 6.2
2018-Jun-24 18:30N 37°47' W 122°23'0 0.2
2018-Jun-24 18:00N 37°47' W 122°23'0 0.0
2018-Jun-24 17:30N 37°47' W 122°23'1 2.8
2018-Jun-24 17:00N 37°46' W 122°22'2 3.8
2018-Jun-24 16:30N 37°44' W 122°21'0 0.8
2018-Jun-24 16:00N 37°44' W 122°21'3 6.1
2018-Jun-24 15:30N 37°47' W 122°23'0 0.0
2018-Jun-24 15:00N 37°47' W 122°23'0 0.3
2018-Jun-24 14:31N 37°47' W 122°23'5 9.0
2018-Jun-24 14:00N 37°47' W 122°17'0 0.0
2018-Jun-24 02:59N 37°47' W 122°17'5 9.8
2018-Jun-24 02:30N 37°47' W 122°23'0 0.0
2018-Jun-24 02:00N 37°47' W 122°23'2 3.1
2018-Jun-24 01:30N 37°46' W 122°22'1 3.0
2018-Jun-24 01:00N 37°47' W 122°23'0 0.2
2018-Jun-24 00:30N 37°47' W 122°23'0 0.0
2018-Jun-24 00:00N 37°47' W 122°23'3 6.6
2018-Jun-23 23:30N 37°44' W 122°21'0 0.4
2018-Jun-23 23:00N 37°44' W 122°21'3 6.3
2018-Jun-23 22:30N 37°47' W 122°23'4 7.0
2018-Jun-23 22:00N 37°45' W 122°20'3 6.4
2018-Jun-23 21:30N 37°48' W 122°20'0 0.9
2018-Jun-23 21:00N 37°48' W 122°21'1 2.5
2018-Jun-23 20:30N 37°47' W 122°22'1 2.2
2018-Jun-23 20:01N 37°47' W 122°23'3 5.9
2018-Jun-23 19:30N 37°44' W 122°21'0 0.3
2018-Jun-23 19:00N 37°45' W 122°21'3 6.0
2018-Jun-23 18:30N 37°47' W 122°23'5 9.2
2018-Jun-23 18:00N 37°48' W 122°17'0 0.1
2018-Jun-23 15:50N 37°47' W 122°17'310.0
2018-Jun-23 15:30N 37°48' W 122°21'2 3.1
2018-Jun-23 15:01N 37°48' W 122°19'2 3.4
2018-Jun-23 14:30N 37°47' W 122°17'0 0.0
2018-Jun-23 14:00N 37°47' W 122°17'1 0.1
2018-Jun-23 06:43N 37°48' W 122°18'2 9.6
2018-Jun-23 06:30N 37°46' W 122°20'3 5.0
2018-Jun-23 06:00N 37°47' W 122°23'3 5.7
2018-Jun-23 05:30N 37°48' W 122°20'2 0.2
2018-Jun-22 19:00N 37°47' W 122°17'3 5.7
2018-Jun-22 18:30N 37°46' W 122°20'0 0.2
2018-Jun-22 18:00N 37°46' W 122°21'0 0.2
2018-Jun-22 17:30N 37°46' W 122°20'3 1.3
2018-Jun-22 15:16N 37°47' W 122°17'2 9.2
2018-Jun-22 15:01N 37°48' W 122°20'2 4.6
2018-Jun-22 14:30N 37°47' W 122°17'0 0.0
2018-Jun-21 21:07N 37°47' W 122°17'0 3.4
2018-Jun-21 21:00N 37°48' W 122°18'2 4.8
2018-Jun-21 20:30N 37°46' W 122°21'3 5.5
2018-Jun-21 20:00N 37°47' W 122°17'0 0.0
2018-Jun-19 16:28N 37°47' W 122°17'0 0.0
2018-Jun-19 00:17N 37°47' W 122°17'1 3.1
2018-Jun-19 00:00N 37°48' W 122°18'3 5.7
2018-Jun-18 23:30N 37°46' W 122°22'4 7.3
2018-Jun-18 23:01N 37°47' W 122°17'1 2.3
2018-Jun-18 22:30N 37°48' W 122°19'0 0.7
2018-Jun-18 22:00N 37°48' W 122°19'1 3.0
2018-Jun-18 21:30N 37°47' W 122°17'0 0.0
2018-Jun-18 19:46N 37°47' W 122°17'311.2
2018-Jun-18 19:30N 37°48' W 122°21'510.3
2018-Jun-18 19:00N 37°43' W 122°19'4 8.8
2018-Jun-18 18:30N 37°47' W 122°20'0 0.2
2018-Jun-18 18:00N 37°47' W 122°20'1 1.6
2018-Jun-18 17:31N 37°47' W 122°20'3 3.6
2018-Jun-18 16:47N 37°47' W 122°17'2 8.7
2018-Jun-18 16:30N 37°47' W 122°20'5 8.5
2018-Jun-18 15:58N 37°43' W 122°19'612.2
2018-Jun-18 15:30N 37°48' W 122°21'3 6.2
2018-Jun-18 15:01N 37°48' W 122°18'4 9.0
2018-Jun-18 14:30N 37°47' W 122°23'1 2.1
2018-Jun-18 14:00N 37°46' W 122°23'0 0.2
2018-Jun-18 13:30N 37°46' W 122°23'0 0.1
2018-Jun-18 13:00N 37°46' W 122°23'0 0.2
2018-Jun-18 12:30N 37°46' W 122°23'0 0.0
2018-Jun-18 11:59N 37°46' W 122°23'0 0.1
2018-Jun-18 11:24N 37°46' W 122°23'1 2.6
2018-Jun-18 11:00N 37°46' W 122°22'4 0.3
2018-Jun-17 21:08N 37°47' W 122°17'1 6.4
2018-Jun-17 21:01N 37°48' W 122°18'3 6.2
2018-Jun-17 20:30N 37°45' W 122°21'0 0.0
2018-Jun-17 20:00N 37°45' W 122°21'4 7.6
2018-Jun-17 19:30N 37°47' W 122°17'0 0.0
2018-Jun-16 03:22N 37°47' W 122°17'412.5
2018-Jun-16 03:01N 37°47' W 122°23'1 1.1
2018-Jun-16 02:30N 37°47' W 122°23'0 0.0
2018-Jun-16 02:00N 37°47' W 122°23'0 0.0
2018-Jun-16 01:30N 37°47' W 122°23'0 0.4
2018-Jun-16 01:00N 37°47' W 122°23'0 0.4
2018-Jun-16 00:30N 37°47' W 122°23'0 0.0
2018-Jun-16 00:00N 37°47' W 122°23'1 2.5
2018-Jun-15 23:30N 37°46' W 122°22'1 2.5
2018-Jun-15 23:00N 37°47' W 122°23'0 0.0
2018-Jun-15 22:30N 37°47' W 122°23'4 7.2
2018-Jun-15 22:01N 37°48' W 122°19'1 0.0
2018-Jun-15 04:24N 37°48' W 122°18'410.4
2018-Jun-15 04:00N 37°47' W 122°23'0 0.4
2018-Jun-15 03:30N 37°47' W 122°23'0 0.0
2018-Jun-15 03:00N 37°47' W 122°23'0 0.0
2018-Jun-15 02:30N 37°47' W 122°23'0 0.0
2018-Jun-15 02:00N 37°47' W 122°23'  
Track history (hours):
 
Tides and Currents Weather Stations Pressure Air Temp Water Temp Dewpoint Dewpoint Depression Visibility Wind Speed Wind Dir Waves Ship Positions

Ailine Elizabeth

Owner: MARINE EXPRESS INC, Pittsburg, CA. More information available from US FCC via Universal Licensing System and Coast Guard Vessel Documentation Center.

Last reported at 2018-Jun-25 01:54 UTC. Time now 2018-Jun-25 05:48 UTC.
Position N 37°47' W 122°17'.

Length 25 m; draft 2 m.

MMSI: 367179250.

Date/timePositionNaut miles runAvg speedWind from/ knotsBaromVisibWave heightAir tempDewpointWater temp
2018-Jun-25 01:54N 37°47' W 122°17'3 7.0
2018-Jun-25 01:30N 37°46' W 122°20'2 4.3
2018-Jun-25 00:59N 37°47' W 122°23'0 0.1
2018-Jun-25 00:30N 37°47' W 122°23'0 0.0
2018-Jun-24 23:59N 37°47' W 122°23'3 6.6
2018-Jun-24 23:30N 37°44' W 122°21'0 0.1
2018-Jun-24 23:00N 37°44' W 122°21'3 6.4
2018-Jun-24 22:30N 37°47' W 122°23'4 7.4
2018-Jun-24 22:00N 37°48' W 122°18'1 0.6
2018-Jun-24 20:30N 37°47' W 122°17'3 6.0
2018-Jun-24 20:00N 37°48' W 122°21'3 6.4
2018-Jun-24 19:30N 37°44' W 122°21'0 0.4
2018-Jun-24 19:00N 37°44' W 122°21'3 6.2
2018-Jun-24 18:30N 37°47' W 122°23'0 0.2
2018-Jun-24 18:00N 37°47' W 122°23'0 0.0
2018-Jun-24 17:30N 37°47' W 122°23'1 2.8
2018-Jun-24 17:00N 37°46' W 122°22'2 3.8
2018-Jun-24 16:30N 37°44' W 122°21'0 0.8
2018-Jun-24 16:00N 37°44' W 122°21'3 6.1
2018-Jun-24 15:30N 37°47' W 122°23'0 0.0
2018-Jun-24 15:00N 37°47' W 122°23'0 0.3
2018-Jun-24 14:31N 37°47' W 122°23'5 9.0
2018-Jun-24 14:00N 37°47' W 122°17'0 0.0
2018-Jun-24 02:59N 37°47' W 122°17'5 9.8
2018-Jun-24 02:30N 37°47' W 122°23'0 0.0
2018-Jun-24 02:00N 37°47' W 122°23'2 3.1
2018-Jun-24 01:30N 37°46' W 122°22'1 3.0
2018-Jun-24 01:00N 37°47' W 122°23'0 0.2
2018-Jun-24 00:30N 37°47' W 122°23'0 0.0
2018-Jun-24 00:00N 37°47' W 122°23'3 6.6
2018-Jun-23 23:30N 37°44' W 122°21'0 0.4
2018-Jun-23 23:00N 37°44' W 122°21'3 6.3
2018-Jun-23 22:30N 37°47' W 122°23'4 7.0
2018-Jun-23 22:00N 37°45' W 122°20'3 6.4
2018-Jun-23 21:30N 37°48' W 122°20'0 0.9
2018-Jun-23 21:00N 37°48' W 122°21'1 2.5
2018-Jun-23 20:30N 37°47' W 122°22'1 2.2
2018-Jun-23 20:01N 37°47' W 122°23'3 5.9
2018-Jun-23 19:30N 37°44' W 122°21'0 0.3
2018-Jun-23 19:00N 37°45' W 122°21'3 6.0
2018-Jun-23 18:30N 37°47' W 122°23'5 9.2
2018-Jun-23 18:00N 37°48' W 122°17'0 0.1
2018-Jun-23 15:50N 37°47' W 122°17'310.0
2018-Jun-23 15:30N 37°48' W 122°21'2 3.1
2018-Jun-23 15:01N 37°48' W 122°19'2 3.4
2018-Jun-23 14:30N 37°47' W 122°17'0 0.0
2018-Jun-23 14:00N 37°47' W 122°17'1 0.1
2018-Jun-23 06:43N 37°48' W 122°18'2 9.6
2018-Jun-23 06:30N 37°46' W 122°20'3 5.0
2018-Jun-23 06:00N 37°47' W 122°23'3 5.7
2018-Jun-23 05:30N 37°48' W 122°20'2 0.2
2018-Jun-22 19:00N 37°47' W 122°17'3 5.7
2018-Jun-22 18:30N 37°46' W 122°20'0 0.2
2018-Jun-22 18:00N 37°46' W 122°21'0 0.2
2018-Jun-22 17:30N 37°46' W 122°20'3 1.3
2018-Jun-22 15:16N 37°47' W 122°17'2 9.2
2018-Jun-22 15:01N 37°48' W 122°20'2 4.6
2018-Jun-22 14:30N 37°47' W 122°17'0 0.0
2018-Jun-21 21:07N 37°47' W 122°17'0 3.4
2018-Jun-21 21:00N 37°48' W 122°18'2 4.8
2018-Jun-21 20:30N 37°46' W 122°21'3 5.5
2018-Jun-21 20:00N 37°47' W 122°17'0 0.0
2018-Jun-19 16:28N 37°47' W 122°17'0 0.0
2018-Jun-19 00:17N 37°47' W 122°17'1 3.1
2018-Jun-19 00:00N 37°48' W 122°18'3 5.7
2018-Jun-18 23:30N 37°46' W 122°22'4 7.3
2018-Jun-18 23:01N 37°47' W 122°17'1 2.3
2018-Jun-18 22:30N 37°48' W 122°19'0 0.7
2018-Jun-18 22:00N 37°48' W 122°19'1 3.0
2018-Jun-18 21:30N 37°47' W 122°17'0 0.0
2018-Jun-18 19:46N 37°47' W 122°17'311.2
2018-Jun-18 19:30N 37°48' W 122°21'510.3
2018-Jun-18 19:00N 37°43' W 122°19'4 8.8
2018-Jun-18 18:30N 37°47' W 122°20'0 0.2
2018-Jun-18 18:00N 37°47' W 122°20'1 1.6
2018-Jun-18 17:31N 37°47' W 122°20'3 3.6
2018-Jun-18 16:47N 37°47' W 122°17'2 8.7
2018-Jun-18 16:30N 37°47' W 122°20'5 8.5
2018-Jun-18 15:58N 37°43' W 122°19'612.2
2018-Jun-18 15:30N 37°48' W 122°21'3 6.2
2018-Jun-18 15:01N 37°48' W 122°18'4 9.0
2018-Jun-18 14:30N 37°47' W 122°23'1 2.1
2018-Jun-18 14:00N 37°46' W 122°23'0 0.2
2018-Jun-18 13:30N 37°46' W 122°23'0 0.1
2018-Jun-18 13:00N 37°46' W 122°23'0 0.2
2018-Jun-18 12:30N 37°46' W 122°23'0 0.0
2018-Jun-18 11:59N 37°46' W 122°23'0 0.1
2018-Jun-18 11:24N 37°46' W 122°23'1 2.6
2018-Jun-18 11:00N 37°46' W 122°22'4 0.3
2018-Jun-17 21:08N 37°47' W 122°17'1 6.4
2018-Jun-17 21:01N 37°48' W 122°18'3 6.2
2018-Jun-17 20:30N 37°45' W 122°21'0 0.0
2018-Jun-17 20:00N 37°45' W 122°21'4 7.6
2018-Jun-17 19:30N 37°47' W 122°17'0 0.0
2018-Jun-16 03:22N 37°47' W 122°17'412.5
2018-Jun-16 03:01N 37°47' W 122°23'1 1.1
2018-Jun-16 02:30N 37°47' W 122°23'0 0.0
2018-Jun-16 02:00N 37°47' W 122°23'0 0.0
2018-Jun-16 01:30N 37°47' W 122°23'0 0.4
2018-Jun-16 01:00N 37°47' W 122°23'0 0.4
2018-Jun-16 00:30N 37°47' W 122°23'0 0.0
2018-Jun-16 00:00N 37°47' W 122°23'1 2.5
2018-Jun-15 23:30N 37°46' W 122°22'1 2.5
2018-Jun-15 23:00N 37°47' W 122°23'0 0.0
2018-Jun-15 22:30N 37°47' W 122°23'4 7.2
2018-Jun-15 22:01N 37°48' W 122°19'1 0.0
2018-Jun-15 04:24N 37°48' W 122°18'410.4
2018-Jun-15 04:00N 37°47' W 122°23'0 0.4
2018-Jun-15 03:30N 37°47' W 122°23'0 0.0
2018-Jun-15 03:00N 37°47' W 122°23'0 0.0
2018-Jun-15 02:30N 37°47' W 122°23'0 0.0
2018-Jun-15 02:00N 37°47' W 122°23'  

Dump ship's entire track history